createdAt,value
2023-01-19T00:01:33.726Z,98.41
2023-01-19T00:04:01.876Z,98.61
2023-01-19T00:06:30.157Z,98.83
2023-01-19T00:08:58.222Z,98.70
2023-01-19T00:11:26.181Z,98.78
2023-01-19T00:13:54.101Z,98.83
2023-01-19T00:16:23.420Z,98.81
2023-01-19T00:18:52.692Z,98.80
2023-01-19T00:21:21.736Z,98.56
2023-01-19T00:23:51.324Z,98.49
2023-01-19T00:26:22.301Z,98.54
2023-01-19T00:28:51.095Z,98.55
2023-01-19T00:31:21.926Z,98.70
2023-01-19T00:33:51.669Z,98.89
2023-01-19T00:36:19.967Z,98.88
2023-01-19T00:38:47.998Z,98.59
2023-01-19T00:41:16.635Z,98.53
2023-01-19T00:43:44.984Z,98.60
2023-01-19T00:46:12.947Z,98.28
2023-01-19T00:48:40.879Z,98.46
2023-01-19T00:51:09.926Z,98.56
2023-01-19T00:53:37.855Z,98.35
2023-01-19T00:56:06.169Z,98.50
2023-01-19T00:58:38.693Z,98.48
2023-01-19T01:01:06.788Z,98.29
2023-01-19T01:03:35.121Z,98.23
2023-01-19T01:06:08.402Z,98.29
2023-01-19T01:08:36.358Z,98.34
2023-01-19T01:11:04.621Z,98.48
2023-01-19T01:13:32.906Z,98.33
2023-01-19T01:16:01.057Z,98.52
2023-01-19T01:18:29.088Z,98.44
2023-01-19T01:21:05.265Z,98.17
2023-01-19T01:23:35.075Z,97.90
2023-01-19T01:26:03.038Z,98.08
2023-01-19T01:28:31.734Z,98.22
2023-01-19T01:30:59.644Z,98.18
2023-01-19T01:33:39.846Z,98.30
2023-01-19T01:36:11.828Z,98.51
2023-01-19T01:38:42.739Z,98.38
2023-01-19T01:41:11.436Z,98.32
2023-01-19T01:43:45.378Z,98.11
2023-01-19T01:46:15.685Z,98.24
2023-01-19T01:49:07.865Z,98.05
2023-01-19T01:51:42.474Z,97.65
2023-01-19T01:54:19.967Z,97.70
2023-01-19T01:56:51.324Z,97.54
2023-01-19T01:59:26.192Z,97.50
2023-01-19T02:02:19.629Z,97.52
2023-01-19T02:04:52.223Z,97.69
2023-01-19T02:07:48.583Z,97.76
2023-01-19T02:10:35.067Z,97.81
2023-01-19T02:13:21.563Z,98.05
2023-01-19T02:15:52.900Z,97.94
2023-01-19T02:18:23.673Z,97.95
2023-01-19T02:21:12.841Z,97.87
2023-01-19T02:23:45.600Z,97.51
2023-01-19T02:26:18.812Z,97.20
2023-01-19T02:29:09.117Z,97.02
2023-01-19T02:31:39.838Z,96.69
2023-01-19T02:34:11.307Z,96.65
2023-01-19T02:36:45.746Z,96.70
2023-01-19T02:39:15.718Z,96.88
2023-01-19T02:41:51.498Z,97.09
2023-01-19T02:44:21.286Z,97.41
2023-01-19T02:46:49.273Z,97.34
2023-01-19T02:49:17.128Z,97.07
2023-01-19T02:51:45.065Z,97.08
2023-01-19T02:54:12.968Z,96.81
2023-01-19T02:56:55.688Z,97.01
2023-01-19T03:00:09.831Z,96.97
2023-01-19T03:02:58.270Z,96.97
2023-01-19T03:05:40.398Z,96.70
2023-01-19T03:08:38.468Z,96.88
2023-01-19T03:11:09.930Z,96.62
2023-01-19T03:14:16.073Z,96.24
2023-01-19T03:16:57.810Z,95.93
2023-01-19T03:19:29.938Z,96.38
2023-01-19T03:22:02.850Z,96.11
2023-01-19T03:24:36.302Z,96.03
2023-01-19T03:27:12.925Z,96.03
2023-01-19T03:29:44.054Z,95.70
2023-01-19T03:32:16.187Z,95.64
2023-01-19T03:34:49.473Z,95.92
2023-01-19T03:37:20.540Z,96.13
2023-01-19T03:39:48.629Z,96.17
2023-01-19T03:42:18.095Z,96.26
2023-01-19T03:44:50.657Z,95.94
2023-01-19T03:47:20.287Z,96.05
2023-01-19T03:49:50.813Z,96.22
2023-01-19T03:52:28.486Z,96.33
2023-01-19T03:54:56.509Z,96.30
2023-01-19T03:57:24.601Z,96.10
2023-01-19T03:59:53.505Z,96.00
2023-01-19T04:02:21.418Z,95.90
2023-01-19T04:04:49.549Z,96.11
2023-01-19T04:07:17.457Z,96.08
2023-01-19T04:09:45.428Z,95.89
2023-01-19T04:12:13.323Z,96.17
2023-01-19T04:14:41.242Z,96.14
2023-01-19T04:17:10.457Z,96.40
2023-01-19T04:19:38.383Z,96.32
2023-01-19T04:22:06.354Z,96.26
2023-01-19T04:24:34.264Z,95.97
2023-01-19T04:27:02.188Z,96.09
2023-01-19T04:29:30.121Z,95.97
2023-01-19T04:31:58.009Z,96.22
2023-01-19T04:34:25.861Z,96.18
2023-01-19T04:36:56.035Z,96.27
2023-01-19T04:39:23.977Z,96.36
2023-01-19T04:41:52.461Z,96.59
2023-01-19T04:44:20.326Z,96.93
2023-01-19T04:46:48.304Z,97.11
2023-01-19T04:49:16.500Z,96.91
2023-01-19T04:51:44.564Z,96.86
2023-01-19T04:54:12.461Z,96.72
2023-01-19T04:56:43.481Z,96.67
2023-01-19T04:59:11.401Z,96.77
2023-01-19T05:01:39.384Z,96.62
2023-01-19T05:04:08.528Z,96.50
2023-01-19T05:06:37.404Z,96.55
2023-01-19T05:09:07.926Z,96.81
2023-01-19T05:11:36.241Z,96.80
2023-01-19T05:14:04.127Z,96.44
2023-01-19T05:16:31.990Z,96.69
2023-01-19T05:19:00.493Z,96.79
2023-01-19T05:21:28.546Z,96.77
2023-01-19T05:23:56.459Z,97.00
2023-01-19T05:26:24.333Z,97.07
2023-01-19T05:28:52.284Z,96.87
2023-01-19T05:31:20.226Z,96.79
2023-01-19T05:33:49.144Z,96.98
2023-01-19T05:36:17.144Z,96.80
2023-01-19T05:38:45.057Z,97.02
2023-01-19T05:41:12.928Z,97.03
2023-01-19T05:43:41.001Z,97.05
2023-01-19T05:46:09.296Z,97.01
2023-01-19T05:48:37.402Z,97.09
2023-01-19T05:51:05.842Z,97.17
2023-01-19T05:53:33.706Z,97.09
2023-01-19T05:56:08.596Z,97.17
2023-01-19T05:58:39.400Z,97.08
2023-01-19T06:01:09.119Z,97.26
2023-01-19T06:03:37.675Z,97.01
2023-01-19T06:06:59.483Z,97.07
2023-01-19T06:09:27.443Z,97.14
2023-01-19T06:11:57.721Z,97.27
2023-01-19T06:14:26.599Z,97.42
2023-01-19T06:16:54.516Z,97.01
2023-01-19T06:19:22.439Z,96.95
2023-01-19T06:21:52.389Z,96.98
2023-01-19T06:24:20.488Z,97.12
2023-01-19T06:26:48.861Z,96.95
2023-01-19T06:29:17.284Z,96.91
2023-01-19T06:31:45.501Z,96.92
2023-01-19T06:34:13.773Z,97.07
2023-01-19T06:36:42.287Z,97.23
2023-01-19T06:39:10.702Z,97.34
2023-01-19T06:41:39.350Z,97.53
2023-01-19T06:44:07.308Z,97.39
2023-01-19T06:46:36.023Z,97.56
2023-01-19T06:49:03.990Z,97.72
2023-01-19T06:51:31.893Z,97.82
2023-01-19T06:53:59.800Z,97.53
2023-01-19T06:56:27.665Z,97.25
2023-01-19T06:58:56.609Z,96.96
2023-01-19T07:01:24.548Z,96.81
2023-01-19T07:03:52.624Z,96.85
2023-01-19T07:06:20.852Z,97.04
2023-01-19T07:08:48.821Z,97.08
2023-01-19T07:11:25.051Z,96.76
2023-01-19T07:13:58.170Z,96.98
2023-01-19T07:16:26.294Z,96.99
2023-01-19T07:18:54.252Z,97.06
2023-01-19T07:21:22.356Z,97.19
2023-01-19T07:23:52.050Z,97.46
2023-01-19T07:26:21.564Z,97.44
2023-01-19T07:28:49.858Z,97.35
2023-01-19T07:31:18.423Z,97.27
2023-01-19T07:33:46.863Z,97.16
2023-01-19T07:36:15.038Z,97.38
2023-01-19T07:38:42.926Z,97.31
2023-01-19T07:41:11.098Z,97.40
2023-01-19T07:43:39.081Z,97.51
2023-01-19T07:46:08.397Z,97.54
2023-01-19T07:48:36.487Z,97.53
2023-01-19T07:51:10.408Z,97.12
2023-01-19T07:53:40.198Z,97.45
2023-01-19T07:56:08.721Z,97.30
2023-01-19T07:58:37.034Z,97.48
2023-01-19T08:01:09.918Z,97.79
2023-01-19T08:03:39.824Z,97.63
2023-01-19T08:06:07.853Z,97.53
2023-01-19T08:08:35.822Z,97.69
2023-01-19T08:11:03.813Z,97.51
2023-01-19T08:13:31.925Z,97.40
2023-01-19T08:15:59.943Z,97.59
2023-01-19T08:18:27.868Z,97.60
2023-01-19T08:20:55.765Z,97.42
2023-01-19T08:23:23.698Z,97.23
2023-01-19T08:25:53.779Z,97.27
2023-01-19T08:28:25.989Z,97.21
2023-01-19T08:30:54.580Z,97.17
2023-01-19T08:33:24.312Z,97.31
2023-01-19T08:35:53.842Z,97.69
2023-01-19T08:38:21.948Z,97.70
2023-01-19T08:40:51.672Z,97.58
2023-01-19T08:43:19.550Z,97.36
2023-01-19T08:45:52.104Z,97.18
2023-01-19T08:48:24.924Z,96.97
2023-01-19T08:50:53.565Z,97.27
2023-01-19T08:53:23.688Z,97.23
2023-01-19T08:56:00.130Z,97.41
2023-01-19T08:58:28.762Z,97.21
2023-01-19T09:00:56.866Z,97.17
2023-01-19T09:03:24.908Z,97.33
2023-01-19T09:05:52.914Z,97.48
2023-01-19T09:08:20.858Z,97.58
2023-01-19T09:10:51.351Z,97.12
2023-01-19T09:13:20.129Z,97.39
2023-01-19T09:15:48.614Z,97.50
2023-01-19T09:18:22.551Z,97.54
2023-01-19T09:20:50.771Z,97.58
2023-01-19T09:23:20.463Z,97.61
2023-01-19T09:25:48.754Z,97.72
2023-01-19T09:28:17.950Z,97.56
2023-01-19T09:30:45.949Z,97.54
2023-01-19T09:33:17.705Z,97.72
2023-01-19T09:35:47.807Z,97.77
2023-01-19T09:38:16.895Z,97.70
2023-01-19T09:40:51.881Z,97.78
2023-01-19T09:43:56.849Z,98.01
2023-01-19T09:46:38.879Z,98.03
2023-01-19T09:49:39.349Z,98.24
2023-01-19T09:52:15.255Z,98.14
2023-01-19T09:54:49.409Z,98.22
2023-01-19T09:57:25.152Z,97.98
2023-01-19T09:59:58.162Z,98.26
2023-01-19T10:02:44.703Z,98.25
2023-01-19T10:05:37.219Z,98.47
2023-01-19T10:08:32.834Z,98.39
2023-01-19T10:11:01.947Z,98.12
2023-01-19T10:13:39.487Z,98.21
2023-01-19T10:16:39.828Z,98.41
2023-01-19T10:19:27.849Z,98.38
2023-01-19T10:21:58.856Z,98.56
2023-01-19T10:24:38.640Z,98.54
2023-01-19T10:27:16.111Z,98.61
2023-01-19T10:29:45.274Z,98.71
2023-01-19T10:32:22.306Z,98.72
2023-01-19T10:34:51.743Z,98.75
2023-01-19T10:37:38.561Z,98.76
2023-01-19T10:40:09.611Z,98.74
2023-01-19T10:42:40.991Z,98.91
2023-01-19T10:45:17.738Z,99.04
2023-01-19T10:47:47.765Z,98.90
2023-01-19T10:50:29.748Z,98.88
2023-01-19T10:53:06.333Z,99.03
2023-01-19T10:55:38.267Z,99.21
2023-01-19T10:58:26.353Z,99.37
2023-01-19T11:00:54.751Z,99.47
2023-01-19T11:03:28.863Z,99.49
2023-01-19T11:06:17.773Z,99.48
2023-01-19T11:08:47.779Z,99.83
2023-01-19T11:11:15.737Z,99.99
2023-01-19T11:13:44.586Z,100.00
2023-01-19T11:16:27.543Z,100.00
2023-01-19T11:18:57.201Z,100.00
2023-01-19T11:21:28.896Z,100.00
2023-01-19T11:24:00.357Z,100.00
2023-01-19T11:27:03.681Z,100.00
2023-01-19T11:29:32.093Z,100.00
2023-01-19T11:32:11.681Z,100.00
2023-01-19T11:34:40.015Z,100.00
2023-01-19T11:37:30.661Z,100.00
2023-01-19T11:40:02.998Z,100.00
2023-01-19T11:42:33.762Z,100.00
2023-01-19T11:45:15.082Z,100.00
2023-01-19T11:47:52.624Z,100.00
2023-01-19T11:50:40.919Z,100.00
2023-01-19T11:53:24.304Z,100.00
2023-01-19T11:56:09.344Z,100.00
2023-01-19T11:58:39.845Z,100.00
2023-01-19T12:01:30.875Z,100.00
2023-01-19T12:04:05.019Z,100.00
2023-01-19T12:06:34.286Z,100.00
2023-01-19T12:09:20.136Z,100.00
2023-01-19T12:11:53.538Z,100.00
2023-01-19T12:14:38.542Z,100.00
2023-01-19T12:17:12.286Z,100.00
2023-01-19T12:19:54.827Z,100.00
2023-01-19T12:22:24.140Z,100.00
2023-01-19T12:25:03.605Z,100.00
2023-01-19T12:27:40.736Z,100.00
2023-01-19T12:30:18.371Z,100.00
2023-01-19T12:32:46.851Z,100.00
2023-01-19T12:35:52.337Z,100.00
2023-01-19T12:38:30.858Z,100.00
2023-01-19T12:41:20.401Z,100.00
2023-01-19T12:44:10.486Z,100.00
2023-01-19T12:46:42.359Z,100.00
2023-01-19T12:49:13.309Z,100.00
2023-01-19T12:51:41.726Z,100.00
2023-01-19T12:54:21.320Z,100.00
2023-01-19T12:56:49.724Z,100.00
2023-01-19T12:59:26.993Z,100.00
2023-01-19T13:02:33.670Z,100.00
2023-01-19T13:05:27.646Z,100.00
2023-01-19T13:08:01.531Z,100.00
2023-01-19T13:11:00.655Z,100.00
2023-01-19T13:14:05.386Z,100.00
2023-01-19T13:16:36.358Z,100.00
2023-01-19T13:19:07.286Z,100.00
2023-01-19T13:21:46.539Z,100.00
2023-01-19T13:24:23.130Z,100.00
2023-01-19T13:26:51.623Z,100.00
2023-01-19T13:29:41.277Z,100.00
2023-01-19T13:32:21.181Z,100.00
2023-01-19T13:34:59.365Z,100.00
2023-01-19T13:37:36.052Z,100.00
2023-01-19T13:40:04.552Z,100.00
2023-01-19T13:42:41.908Z,100.00
2023-01-19T13:45:26.443Z,100.00
2023-01-19T13:47:57.315Z,100.00
2023-01-19T13:50:31.128Z,100.00
2023-01-19T13:53:00.136Z,100.00
2023-01-19T13:55:30.769Z,100.00
2023-01-19T13:57:58.873Z,100.00
2023-01-19T14:00:29.480Z,100.00
2023-01-19T14:02:59.414Z,100.00
2023-01-19T14:05:34.708Z,100.00
2023-01-19T14:08:08.668Z,100.00
2023-01-19T14:10:42.434Z,100.00
2023-01-19T14:13:18.991Z,100.00
2023-01-19T14:15:49.698Z,100.00
2023-01-19T14:18:17.548Z,100.00
2023-01-19T14:21:12.724Z,100.00
2023-01-19T14:23:50.246Z,100.00
2023-01-19T14:26:37.637Z,100.00
2023-01-19T14:29:31.743Z,100.00
2023-01-19T14:32:00.672Z,100.00
2023-01-19T14:34:30.569Z,100.00
2023-01-19T14:36:58.914Z,100.00
2023-01-19T14:39:31.029Z,100.00
2023-01-19T14:42:03.236Z,100.00
2023-01-19T14:44:35.807Z,100.00
2023-01-19T14:47:05.725Z,100.00
2023-01-19T14:49:41.092Z,100.00
2023-01-19T14:52:28.616Z,100.00
2023-01-19T14:54:58.487Z,100.00
2023-01-19T14:57:26.473Z,100.00
2023-01-19T14:59:55.856Z,100.00
2023-01-19T15:02:24.032Z,100.00
2023-01-19T15:04:55.380Z,100.00
2023-01-19T15:07:25.130Z,100.00
2023-01-19T15:09:53.059Z,100.00
2023-01-19T15:12:24.370Z,100.00
2023-01-19T15:14:52.343Z,100.00
2023-01-19T15:17:27.385Z,100.00
2023-01-19T15:19:57.160Z,100.00
2023-01-19T15:22:26.844Z,100.00
2023-01-19T15:24:57.754Z,100.00
2023-01-19T15:27:27.169Z,100.00
2023-01-19T15:29:55.328Z,100.00
2023-01-19T15:32:23.276Z,100.00
2023-01-19T15:34:51.834Z,100.00
2023-01-19T15:37:20.398Z,100.00
2023-01-19T15:39:48.453Z,100.00
2023-01-19T15:42:16.457Z,100.00
2023-01-19T15:44:45.169Z,100.00
2023-01-19T15:47:13.137Z,100.00
2023-01-19T15:49:41.148Z,100.00
2023-01-19T15:52:09.044Z,100.00
2023-01-19T15:54:36.953Z,100.00
2023-01-19T15:57:06.037Z,100.00
2023-01-19T15:59:33.944Z,100.00
2023-01-19T16:02:01.958Z,100.00
2023-01-19T16:04:30.330Z,100.00
2023-01-19T16:06:58.228Z,100.00
2023-01-19T16:09:26.167Z,100.00
2023-01-19T16:11:57.102Z,100.00
2023-01-19T16:14:25.117Z,100.00
2023-01-19T16:16:52.965Z,100.00
2023-01-19T16:19:20.959Z,100.00
2023-01-19T16:21:49.042Z,100.00
2023-01-19T16:24:18.169Z,100.00
2023-01-19T16:26:46.081Z,100.00
2023-01-19T16:29:13.984Z,100.00
2023-01-19T16:31:43.659Z,100.00
2023-01-19T16:34:11.938Z,100.00
2023-01-19T16:36:41.811Z,100.00
2023-01-19T16:39:14.848Z,100.00
2023-01-19T16:41:44.881Z,100.00
2023-01-19T16:44:15.398Z,100.00
2023-01-19T16:46:46.454Z,100.00
2023-01-19T16:49:21.396Z,100.00
2023-01-19T16:51:50.004Z,100.00
2023-01-19T16:54:21.480Z,100.00
2023-01-19T16:56:49.881Z,100.00
2023-01-19T16:59:18.854Z,100.00
2023-01-19T17:01:47.144Z,100.00
2023-01-19T17:04:15.149Z,100.00
2023-01-19T17:06:43.272Z,100.00
2023-01-19T17:09:11.812Z,100.00
2023-01-19T17:11:43.005Z,100.00
2023-01-19T17:14:16.669Z,100.00
2023-01-19T17:16:44.774Z,100.00
2023-01-19T17:19:18.287Z,100.00
2023-01-19T17:21:51.176Z,100.00
2023-01-19T17:24:19.542Z,100.00
2023-01-19T17:26:48.836Z,100.00
2023-01-19T17:29:17.586Z,100.00
2023-01-19T17:31:46.841Z,100.00
2023-01-19T17:34:14.861Z,100.00
2023-01-19T17:36:42.957Z,100.00
2023-01-19T17:39:14.962Z,100.00
2023-01-19T17:41:43.036Z,100.00
2023-01-19T17:44:11.148Z,100.00
2023-01-19T17:46:39.513Z,100.00
2023-01-19T17:49:07.705Z,100.00
2023-01-19T17:51:36.119Z,100.00
2023-01-19T17:54:04.810Z,100.00
2023-01-19T17:56:36.914Z,100.00
2023-01-19T17:59:07.753Z,100.00
2023-01-19T18:01:39.952Z,100.00
2023-01-19T18:04:09.298Z,100.00
2023-01-19T18:06:38.193Z,100.00
2023-01-19T18:09:07.612Z,100.00
2023-01-19T18:11:36.049Z,100.00
2023-01-19T18:14:06.062Z,100.00
2023-01-19T18:16:34.768Z,100.00
2023-01-19T18:19:02.850Z,100.00
2023-01-19T18:21:30.908Z,100.00
2023-01-19T18:24:03.981Z,100.00
2023-01-19T18:26:34.193Z,100.00
2023-01-19T18:29:02.133Z,100.00
2023-01-19T18:31:30.336Z,100.00
2023-01-19T18:33:58.451Z,100.00
2023-01-19T18:36:26.750Z,100.00
2023-01-19T18:38:54.839Z,100.00
2023-01-19T18:41:22.850Z,100.00
2023-01-19T18:43:52.153Z,100.00
2023-01-19T18:46:21.323Z,100.00
2023-01-19T18:48:49.290Z,100.00
2023-01-19T18:51:20.116Z,100.00
2023-01-19T18:53:48.157Z,100.00
2023-01-19T18:56:16.752Z,100.00
2023-01-19T18:58:44.903Z,100.00
2023-01-19T19:01:28.396Z,100.00
2023-01-19T19:03:57.646Z,100.00
2023-01-19T19:06:27.188Z,100.00
2023-01-19T19:08:57.980Z,100.00
2023-01-19T19:11:26.760Z,100.00
2023-01-19T19:14:00.499Z,100.00
2023-01-19T19:16:30.097Z,100.00
2023-01-19T19:18:59.599Z,100.00
2023-01-19T19:21:27.908Z,100.00
2023-01-19T19:23:57.989Z,100.00
2023-01-19T19:26:28.408Z,100.00
2023-01-19T19:28:56.625Z,100.00
2023-01-19T19:31:26.230Z,100.00
2023-01-19T19:33:55.854Z,100.00
2023-01-19T19:36:25.633Z,100.00
2023-01-19T19:38:53.968Z,100.00
2023-01-19T19:41:24.430Z,100.00
2023-01-19T19:43:53.488Z,100.00
2023-01-19T19:46:24.396Z,100.00
2023-01-19T19:48:53.932Z,100.00
2023-01-19T19:51:27.231Z,100.00
2023-01-19T19:53:59.966Z,100.00
2023-01-19T19:56:30.185Z,100.00
2023-01-19T19:58:59.658Z,100.00
2023-01-19T20:01:32.795Z,100.00
2023-01-19T20:04:08.007Z,100.00
2023-01-19T20:06:39.040Z,100.00
2023-01-19T20:09:10.146Z,100.00
2023-01-19T20:11:38.937Z,100.00
2023-01-19T20:14:09.476Z,100.00
2023-01-19T20:16:38.143Z,100.00
2023-01-19T20:19:06.135Z,100.00
2023-01-19T20:21:41.871Z,100.00
2023-01-19T20:24:13.811Z,100.00
2023-01-19T20:26:46.074Z,100.00
2023-01-19T20:29:16.744Z,100.00
2023-01-19T20:31:52.145Z,100.00
2023-01-19T20:34:23.550Z,100.00
2023-01-19T20:36:53.938Z,100.00
2023-01-19T20:39:24.099Z,100.00
2023-01-19T20:41:52.644Z,100.00
2023-01-19T20:44:23.650Z,100.00
2023-01-19T20:46:53.149Z,100.00
2023-01-19T20:49:21.753Z,100.00
2023-01-19T20:51:52.095Z,100.00
2023-01-19T20:54:29.979Z,100.00
2023-01-19T20:56:58.323Z,100.00
2023-01-19T20:59:26.963Z,100.00
2023-01-19T21:01:55.435Z,100.00
2023-01-19T21:04:23.483Z,100.00
2023-01-19T21:06:51.591Z,100.00
2023-01-19T21:09:19.713Z,100.00
2023-01-19T21:11:47.956Z,100.00
2023-01-19T21:14:15.888Z,100.00
2023-01-19T21:16:44.035Z,100.00
2023-01-19T21:19:12.183Z,100.00
2023-01-19T21:21:40.211Z,100.00
2023-01-19T21:24:10.670Z,100.00
2023-01-19T21:26:38.766Z,100.00
2023-01-19T21:29:06.828Z,100.00
2023-01-19T21:31:35.097Z,100.00
2023-01-19T21:34:03.267Z,100.00
2023-01-19T21:36:31.854Z,100.00
2023-01-19T21:39:03.777Z,100.00
2023-01-19T21:41:32.136Z,100.00
2023-01-19T21:44:00.885Z,100.00
2023-01-19T21:46:29.707Z,100.00
2023-01-19T21:49:03.026Z,100.00
2023-01-19T21:51:35.409Z,100.00
2023-01-19T21:54:06.955Z,100.00
2023-01-19T21:56:35.893Z,100.00
2023-01-19T21:59:05.008Z,100.00
2023-01-19T22:01:34.218Z,100.00
2023-01-19T22:04:02.361Z,100.00
2023-01-19T22:06:30.325Z,100.00
2023-01-19T22:08:58.532Z,100.00
2023-01-19T22:11:27.063Z,100.00
2023-01-19T22:13:55.161Z,100.00
2023-01-19T22:16:23.803Z,100.00
2023-01-19T22:19:01.250Z,100.00
2023-01-19T22:21:35.664Z,100.00
2023-01-19T22:24:04.879Z,100.00
2023-01-19T22:26:34.370Z,100.00
2023-01-19T22:29:04.933Z,100.00
2023-01-19T22:31:33.021Z,100.00
2023-01-19T22:34:01.033Z,100.00
2023-01-19T22:36:34.024Z,100.00
2023-01-19T22:39:05.609Z,100.00
2023-01-19T22:41:42.332Z,100.00
2023-01-19T22:44:21.016Z,100.00
2023-01-19T22:46:50.763Z,100.00
2023-01-19T22:49:18.845Z,100.00
2023-01-19T22:51:47.121Z,100.00
2023-01-19T22:54:15.363Z,100.00
2023-01-19T22:56:43.429Z,100.00
2023-01-19T22:59:11.470Z,100.00
2023-01-19T23:01:42.562Z,100.00
2023-01-19T23:04:13.168Z,100.00
2023-01-19T23:06:42.082Z,100.00
2023-01-19T23:09:14.611Z,100.00
2023-01-19T23:11:45.140Z,100.00
2023-01-19T23:14:15.345Z,100.00
2023-01-19T23:16:43.275Z,100.00
2023-01-19T23:19:12.190Z,100.00
2023-01-19T23:21:41.813Z,100.00
2023-01-19T23:24:09.785Z,100.00
2023-01-19T23:26:38.533Z,100.00
2023-01-19T23:29:10.292Z,100.00
2023-01-19T23:31:39.760Z,100.00
2023-01-19T23:34:09.982Z,100.00
2023-01-19T23:36:40.348Z,100.00
2023-01-19T23:39:15.597Z,100.00
2023-01-19T23:41:43.626Z,100.00
2023-01-19T23:44:11.737Z,100.00
2023-01-19T23:46:39.697Z,100.00
2023-01-19T23:49:07.591Z,100.00
2023-01-19T23:51:35.912Z,100.00
2023-01-19T23:54:03.949Z,100.00
2023-01-19T23:56:34.627Z,100.00
2023-01-19T23:59:07.043Z,100.00
